sensor_id;sensor_type;location;lat;lon;timestamp;pressure;altitude;pressure_sealevel;temperature;humidity
6942;BME280;3510;43.200;27.920;2023-02-21T00:01:18;101048.38;;;12.36;40.07
6942;BME280;3510;43.200;27.920;2023-02-21T00:03:57;101041.72;;;12.06;40.27
6942;BME280;3510;43.200;27.920;2023-02-21T00:06:37;101055.03;;;12.46;39.87
6942;BME280;3510;43.200;27.920;2023-02-21T00:09:17;101064.22;;;12.55;39.83
6942;BME280;3510;43.200;27.920;2023-02-21T00:11:57;101051.09;;;12.59;39.34
6942;BME280;3510;43.200;27.920;2023-02-21T00:14:38;101055.16;;;12.90;39.31
6942;BME280;3510;43.200;27.920;2023-02-21T00:17:19;101050.91;;;12.16;40.35
6942;BME280;3510;43.200;27.920;2023-02-21T00:19:58;101039.81;;;12.24;40.27
6942;BME280;3510;43.200;27.920;2023-02-21T00:22:39;101042.81;;;12.20;40.42
6942;BME280;3510;43.200;27.920;2023-02-21T00:25:19;101016.47;;;12.16;40.48
6942;BME280;3510;43.200;27.920;2023-02-21T00:27:59;101016.63;;;12.07;41.01
6942;BME280;3510;43.200;27.920;2023-02-21T00:30:40;101012.09;;;12.14;40.74
6942;BME280;3510;43.200;27.920;2023-02-21T00:33:21;101032.38;;;12.05;41.14
6942;BME280;3510;43.200;27.920;2023-02-21T00:36:00;101021.25;;;12.33;40.69
6942;BME280;3510;43.200;27.920;2023-02-21T00:38:40;101015.88;;;12.61;40.18
6942;BME280;3510;43.200;27.920;2023-02-21T00:41:21;100977.34;;;12.31;40.57
6942;BME280;3510;43.200;27.920;2023-02-21T00:44:01;101009.41;;;12.97;39.73
6942;BME280;3510;43.200;27.920;2023-02-21T00:46:42;101021.28;;;12.66;39.87
6942;BME280;3510;43.200;27.920;2023-02-21T00:49:23;101011.19;;;12.98;39.98
6942;BME280;3510;43.200;27.920;2023-02-21T00:52:02;100889.16;;;12.55;39.48
6942;BME280;3510;43.200;27.920;2023-02-21T00:54:42;101000.47;;;13.12;39.77
6942;BME280;3510;43.200;27.920;2023-02-21T00:57:23;101008.31;;;13.15;40.20
6942;BME280;3510;43.200;27.920;2023-02-21T01:00:04;100951.94;;;13.16;39.50
6942;BME280;3510;43.200;27.920;2023-02-21T01:02:43;100993.34;;;13.28;39.43
6942;BME280;3510;43.200;27.920;2023-02-21T01:05:25;100999.94;;;13.60;39.52
6942;BME280;3510;43.200;27.920;2023-02-21T01:08:04;100993.19;;;13.49;39.04
6942;BME280;3510;43.200;27.920;2023-02-21T01:10:44;100967.78;;;13.14;39.87
6942;BME280;3510;43.200;27.920;2023-02-21T01:13:24;100992.50;;;13.18;39.96
6942;BME280;3510;43.200;27.920;2023-02-21T01:16:06;100964.50;;;12.82;40.75
6942;BME280;3510;43.200;27.920;2023-02-21T01:18:45;100975.22;;;13.12;40.48
6942;BME280;3510;43.200;27.920;2023-02-21T01:21:26;100979.94;;;13.29;40.37
6942;BME280;3510;43.200;27.920;2023-02-21T01:24:08;100961.03;;;13.24;40.31
6942;BME280;3510;43.200;27.920;2023-02-21T01:26:46;100978.19;;;12.74;41.37
6942;BME280;3510;43.200;27.920;2023-02-21T01:29:26;100968.34;;;12.77;41.13
6942;BME280;3510;43.200;27.920;2023-02-21T01:32:06;100949.06;;;12.68;41.58
6942;BME280;3510;43.200;27.920;2023-02-21T01:34:46;100956.59;;;13.22;40.75
6942;BME280;3510;43.200;27.920;2023-02-21T01:37:28;100944.69;;;13.76;40.01
6942;BME280;3510;43.200;27.920;2023-02-21T01:40:08;100940.13;;;13.61;40.07
6942;BME280;3510;43.200;27.920;2023-02-21T01:42:52;100932.22;;;13.56;40.10
6942;BME280;3510;43.200;27.920;2023-02-21T01:45:42;100934.72;;;13.44;40.66
6942;BME280;3510;43.200;27.920;2023-02-21T01:48:20;100940.94;;;13.38;40.87
6942;BME280;3510;43.200;27.920;2023-02-21T01:50:59;100934.22;;;13.26;40.94
6942;BME280;3510;43.200;27.920;2023-02-21T01:53:40;100909.41;;;13.11;41.14
6942;BME280;3510;43.200;27.920;2023-02-21T01:56:19;100898.44;;;12.66;42.17
6942;BME280;3510;43.200;27.920;2023-02-21T01:59:00;100913.38;;;12.85;42.56
6942;BME280;3510;43.200;27.920;2023-02-21T02:01:52;100919.03;;;13.04;42.26
6942;BME280;3510;43.200;27.920;2023-02-21T02:04:31;100899.91;;;12.74;43.10
6942;BME280;3510;43.200;27.920;2023-02-21T02:07:10;100890.28;;;12.58;43.34
6942;BME280;3510;43.200;27.920;2023-02-21T02:09:52;100892.25;;;12.41;44.03
6942;BME280;3510;43.200;27.920;2023-02-21T02:12:51;100898.94;;;12.72;43.80
6942;BME280;3510;43.200;27.920;2023-02-21T02:15:27;100890.63;;;12.85;43.77
6942;BME280;3510;43.200;27.920;2023-02-21T02:18:08;100868.38;;;12.91;42.92
6942;BME280;3510;43.200;27.920;2023-02-21T02:21:07;100892.47;;;12.98;42.84
6942;BME280;3510;43.200;27.920;2023-02-21T02:24:00;100901.69;;;13.31;42.63
6942;BME280;3510;43.200;27.920;2023-02-21T02:26:56;100858.34;;;12.81;42.74
6942;BME280;3510;43.200;27.920;2023-02-21T02:29:47;100884.94;;;13.21;42.37
6942;BME280;3510;43.200;27.920;2023-02-21T02:32:35;100889.69;;;12.95;43.39
6942;BME280;3510;43.200;27.920;2023-02-21T02:35:08;100876.78;;;12.80;44.32
6942;BME280;3510;43.200;27.920;2023-02-21T02:37:41;100876.94;;;12.49;45.65
6942;BME280;3510;43.200;27.920;2023-02-21T02:40:18;100837.63;;;12.41;45.16
6942;BME280;3510;43.200;27.920;2023-02-21T02:43:00;100855.84;;;12.93;44.90
6942;BME280;3510;43.200;27.920;2023-02-21T02:45:33;100862.28;;;13.11;44.57
6942;BME280;3510;43.200;27.920;2023-02-21T02:48:07;100847.66;;;13.07;44.22
6942;BME280;3510;43.200;27.920;2023-02-21T02:50:38;100875.50;;;13.19;43.54
6942;BME280;3510;43.200;27.920;2023-02-21T02:53:05;100870.53;;;13.42;43.12
6942;BME280;3510;43.200;27.920;2023-02-21T02:55:38;100876.50;;;13.54;41.91
6942;BME280;3510;43.200;27.920;2023-02-21T02:58:08;100885.03;;;13.45;42.62
6942;BME280;3510;43.200;27.920;2023-02-21T03:00:38;100880.16;;;13.24;42.69
6942;BME280;3510;43.200;27.920;2023-02-21T03:03:19;100853.41;;;13.73;41.53
6942;BME280;3510;43.200;27.920;2023-02-21T03:06:04;100852.63;;;13.51;41.78
6942;BME280;3510;43.200;27.920;2023-02-21T03:08:49;100866.47;;;13.56;41.65
6942;BME280;3510;43.200;27.920;2023-02-21T03:11:19;100877.47;;;13.56;42.03
6942;BME280;3510;43.200;27.920;2023-02-21T03:13:50;100866.69;;;13.59;42.08
6942;BME280;3510;43.200;27.920;2023-02-21T03:16:23;100872.63;;;13.48;41.75
6942;BME280;3510;43.200;27.920;2023-02-21T03:18:57;100850.00;;;13.61;41.30
6942;BME280;3510;43.200;27.920;2023-02-21T03:21:31;100867.03;;;13.64;41.21
6942;BME280;3510;43.200;27.920;2023-02-21T03:24:01;100824.31;;;13.21;41.18
6942;BME280;3510;43.200;27.920;2023-02-21T03:26:33;100870.00;;;13.58;41.29
6942;BME280;3510;43.200;27.920;2023-02-21T03:29:02;100856.91;;;13.75;40.36
6942;BME280;3510;43.200;27.920;2023-02-21T03:31:34;100852.06;;;13.78;40.09
6942;BME280;3510;43.200;27.920;2023-02-21T03:34:03;100859.31;;;13.39;41.05
6942;BME280;3510;43.200;27.920;2023-02-21T03:36:31;100842.78;;;13.20;41.25
6942;BME280;3510;43.200;27.920;2023-02-21T03:38:58;100845.75;;;13.26;41.17
6942;BME280;3510;43.200;27.920;2023-02-21T03:41:25;100868.44;;;13.48;41.17
6942;BME280;3510;43.200;27.920;2023-02-21T03:43:52;100864.03;;;13.46;41.56
6942;BME280;3510;43.200;27.920;2023-02-21T03:46:19;100860.44;;;13.54;41.39
6942;BME280;3510;43.200;27.920;2023-02-21T03:48:45;100853.59;;;13.41;41.61
6942;BME280;3510;43.200;27.920;2023-02-21T03:51:12;100832.28;;;13.49;41.49
6942;BME280;3510;43.200;27.920;2023-02-21T03:53:40;100873.50;;;13.60;41.45
6942;BME280;3510;43.200;27.920;2023-02-21T03:56:07;100885.19;;;13.82;41.29
6942;BME280;3510;43.200;27.920;2023-02-21T03:58:33;100875.97;;;14.06;40.47
6942;BME280;3510;43.200;27.920;2023-02-21T04:01:00;100875.81;;;14.16;40.38
6942;BME280;3510;43.200;27.920;2023-02-21T04:03:28;100869.78;;;14.14;40.04
6942;BME280;3510;43.200;27.920;2023-02-21T04:05:54;100869.13;;;13.93;40.20
6942;BME280;3510;43.200;27.920;2023-02-21T04:08:21;100873.09;;;14.13;39.82
6942;BME280;3510;43.200;27.920;2023-02-21T04:10:49;100846.59;;;13.96;40.06
6942;BME280;3510;43.200;27.920;2023-02-21T04:13:16;100822.13;;;14.08;39.29
6942;BME280;3510;43.200;27.920;2023-02-21T04:15:44;100793.00;;;13.90;39.04
6942;BME280;3510;43.200;27.920;2023-02-21T04:18:11;100801.59;;;13.92;38.96
6942;BME280;3510;43.200;27.920;2023-02-21T04:20:37;100851.25;;;14.26;38.91
6942;BME280;3510;43.200;27.920;2023-02-21T04:23:04;100822.00;;;14.18;39.33
6942;BME280;3510;43.200;27.920;2023-02-21T04:25:31;100820.38;;;14.07;39.18
6942;BME280;3510;43.200;27.920;2023-02-21T04:27:59;100838.19;;;14.09;38.95
6942;BME280;3510;43.200;27.920;2023-02-21T04:30:26;100825.50;;;14.32;38.20
6942;BME280;3510;43.200;27.920;2023-02-21T04:32:52;100834.75;;;14.32;38.10
6942;BME280;3510;43.200;27.920;2023-02-21T04:35:20;100775.09;;;14.35;37.64
6942;BME280;3510;43.200;27.920;2023-02-21T04:37:47;100829.88;;;14.58;37.31
6942;BME280;3510;43.200;27.920;2023-02-21T04:40:13;100826.63;;;14.72;36.96
6942;BME280;3510;43.200;27.920;2023-02-21T04:42:40;100794.63;;;14.99;36.71
6942;BME280;3510;43.200;27.920;2023-02-21T04:45:08;100821.06;;;14.78;37.54
6942;BME280;3510;43.200;27.920;2023-02-21T04:47:35;100826.63;;;14.61;38.06
6942;BME280;3510;43.200;27.920;2023-02-21T04:50:03;100825.94;;;14.50;38.34
6942;BME280;3510;43.200;27.920;2023-02-21T04:52:31;100826.44;;;14.46;37.92
6942;BME280;3510;43.200;27.920;2023-02-21T04:54:58;100766.34;;;14.43;37.60
6942;BME280;3510;43.200;27.920;2023-02-21T04:57:25;100827.34;;;14.83;36.84
6942;BME280;3510;43.200;27.920;2023-02-21T04:59:56;100821.00;;;14.90;37.06
6942;BME280;3510;43.200;27.920;2023-02-21T05:02:25;100838.44;;;14.60;38.00
6942;BME280;3510;43.200;27.920;2023-02-21T05:04:52;100818.75;;;14.81;37.31
6942;BME280;3510;43.200;27.920;2023-02-21T05:07:19;100813.38;;;14.76;37.61
6942;BME280;3510;43.200;27.920;2023-02-21T05:09:46;100833.78;;;14.91;37.46
6942;BME280;3510;43.200;27.920;2023-02-21T05:12:13;100833.00;;;14.67;37.55
6942;BME280;3510;43.200;27.920;2023-02-21T05:14:40;100836.97;;;14.64;37.94
6942;BME280;3510;43.200;27.920;2023-02-21T05:17:07;100842.50;;;15.08;37.15
6942;BME280;3510;43.200;27.920;2023-02-21T05:19:36;100842.63;;;15.10;36.54
6942;BME280;3510;43.200;27.920;2023-02-21T05:22:03;100849.84;;;15.17;36.51
6942;BME280;3510;43.200;27.920;2023-02-21T05:24:32;100838.63;;;15.13;36.36
6942;BME280;3510;43.200;27.920;2023-02-21T05:26:59;100842.56;;;15.21;36.64
6942;BME280;3510;43.200;27.920;2023-02-21T05:29:26;100840.03;;;14.96;37.15
6942;BME280;3510;43.200;27.920;2023-02-21T05:31:54;100826.97;;;15.29;36.35
6942;BME280;3510;43.200;27.920;2023-02-21T05:34:20;100828.72;;;14.91;36.87
6942;BME280;3510;43.200;27.920;2023-02-21T05:36:49;100769.47;;;14.39;36.96
6942;BME280;3510;43.200;27.920;2023-02-21T05:39:16;100835.03;;;14.60;37.68
6942;BME280;3510;43.200;27.920;2023-02-21T05:41:47;100825.88;;;14.87;37.08
6942;BME280;3510;43.200;27.920;2023-02-21T05:44:15;100799.13;;;14.65;36.78
6942;BME280;3510;43.200;27.920;2023-02-21T05:46:42;100822.88;;;14.67;37.02
6942;BME280;3510;43.200;27.920;2023-02-21T05:49:10;100741.91;;;15.07;35.66
6942;BME280;3510;43.200;27.920;2023-02-21T05:51:39;100824.44;;;15.29;35.99
6942;BME280;3510;43.200;27.920;2023-02-21T05:54:10;100832.56;;;15.63;35.41
6942;BME280;3510;43.200;27.920;2023-02-21T05:56:37;100830.91;;;16.03;34.86
6942;BME280;3510;43.200;27.920;2023-02-21T05:59:05;100828.50;;;15.91;34.77
6942;BME280;3510;43.200;27.920;2023-02-21T06:01:33;100827.31;;;16.41;33.78
6942;BME280;3510;43.200;27.920;2023-02-21T06:04:01;100774.25;;;16.74;33.08
6942;BME280;3510;43.200;27.920;2023-02-21T06:06:29;100846.59;;;17.08;32.82
6942;BME280;3510;43.200;27.920;2023-02-21T06:08:56;100832.84;;;17.34;32.57
6942;BME280;3510;43.200;27.920;2023-02-21T06:11:40;100811.97;;;18.01;31.34
6942;BME280;3510;43.200;27.920;2023-02-21T06:14:13;100758.56;;;17.40;31.32
6942;BME280;3510;43.200;27.920;2023-02-21T06:16:41;100852.22;;;18.39;31.30
6942;BME280;3510;43.200;27.920;2023-02-21T06:19:09;100838.66;;;18.71;30.55
6942;BME280;3510;43.200;27.920;2023-02-21T06:21:38;100759.78;;;18.58;30.20
6942;BME280;3510;43.200;27.920;2023-02-21T06:24:06;100849.09;;;18.76;30.64
6942;BME280;3510;43.200;27.920;2023-02-21T06:26:35;100849.59;;;19.19;30.21
6942;BME280;3510;43.200;27.920;2023-02-21T06:29:04;100813.50;;;19.12;30.42
6942;BME280;3510;43.200;27.920;2023-02-21T06:31:31;100814.19;;;18.75;30.81
6942;BME280;3510;43.200;27.920;2023-02-21T06:33:59;100857.69;;;18.94;31.45
6942;BME280;3510;43.200;27.920;2023-02-21T06:36:27;100847.38;;;18.60;32.06
6942;BME280;3510;43.200;27.920;2023-02-21T06:38:55;100853.97;;;18.88;31.66
6942;BME280;3510;43.200;27.920;2023-02-21T06:41:24;100824.06;;;18.52;32.16
6942;BME280;3510;43.200;27.920;2023-02-21T06:43:57;100819.78;;;18.84;32.10
6942;BME280;3510;43.200;27.920;2023-02-21T06:46:27;100840.13;;;18.35;32.59
6942;BME280;3510;43.200;27.920;2023-02-21T06:48:56;100789.69;;;18.13;32.38
6942;BME280;3510;43.200;27.920;2023-02-21T06:51:26;100800.53;;;17.78;32.31
6942;BME280;3510;43.200;27.920;2023-02-21T06:53:56;100831.72;;;18.05;32.38
6942;BME280;3510;43.200;27.920;2023-02-21T06:56:24;100736.69;;;18.22;31.17
6942;BME280;3510;43.200;27.920;2023-02-21T06:58:52;100729.94;;;18.06;31.13
6942;BME280;3510;43.200;27.920;2023-02-21T07:01:19;100743.97;;;17.83;31.13
6942;BME280;3510;43.200;27.920;2023-02-21T07:03:50;100768.06;;;18.37;30.72
6942;BME280;3510;43.200;27.920;2023-02-21T07:06:18;100837.47;;;18.81;30.81
6942;BME280;3510;43.200;27.920;2023-02-21T07:08:46;100836.13;;;18.88;30.61
6942;BME280;3510;43.200;27.920;2023-02-21T07:11:21;100838.88;;;18.76;30.71
6942;BME280;3510;43.200;27.920;2023-02-21T07:13:51;100687.41;;;18.05;30.90
6942;BME280;3510;43.200;27.920;2023-02-21T07:16:21;100744.56;;;18.59;30.42
6942;BME280;3510;43.200;27.920;2023-02-21T07:18:51;100813.28;;;19.07;30.61
6942;BME280;3510;43.200;27.920;2023-02-21T07:21:19;100815.88;;;19.25;30.21
6942;BME280;3510;43.200;27.920;2023-02-21T07:23:48;100752.94;;;19.07;29.99
6942;BME280;3510;43.200;27.920;2023-02-21T07:26:15;100796.78;;;19.52;29.72
6942;BME280;3510;43.200;27.920;2023-02-21T07:28:43;100803.19;;;19.80;29.19
6942;BME280;3510;43.200;27.920;2023-02-21T07:31:10;100803.13;;;19.78;29.04
6942;BME280;3510;43.200;27.920;2023-02-21T07:33:37;100797.22;;;19.44;29.45
6942;BME280;3510;43.200;27.920;2023-02-21T07:36:06;100795.44;;;20.14;28.64
6942;BME280;3510;43.200;27.920;2023-02-21T07:38:33;100802.63;;;19.86;28.91
6942;BME280;3510;43.200;27.920;2023-02-21T07:41:02;100795.03;;;19.51;29.28
6942;BME280;3510;43.200;27.920;2023-02-21T07:43:45;100755.81;;;19.67;28.59
6942;BME280;3510;43.200;27.920;2023-02-21T07:46:16;100779.13;;;19.75;29.07
6942;BME280;3510;43.200;27.920;2023-02-21T07:48:44;100757.44;;;20.02;28.60
6942;BME280;3510;43.200;27.920;2023-02-21T07:51:12;100714.03;;;19.85;28.49
6942;BME280;3510;43.200;27.920;2023-02-21T07:53:39;100777.06;;;20.23;28.27
6942;BME280;3510;43.200;27.920;2023-02-21T07:56:13;100759.25;;;20.44;28.14
6942;BME280;3510;43.200;27.920;2023-02-21T07:58:41;100767.47;;;20.37;28.37
6942;BME280;3510;43.200;27.920;2023-02-21T08:01:09;100767.13;;;20.29;28.46
6942;BME280;3510;43.200;27.920;2023-02-21T08:03:36;100705.34;;;20.39;27.54
6942;BME280;3510;43.200;27.920;2023-02-21T08:06:05;100720.75;;;20.41;27.88
6942;BME280;3510;43.200;27.920;2023-02-21T08:08:37;100653.88;;;20.11;27.81
6942;BME280;3510;43.200;27.920;2023-02-21T08:11:04;100696.66;;;20.36;28.38
6942;BME280;3510;43.200;27.920;2023-02-21T08:13:35;100733.97;;;20.50;28.28
6942;BME280;3510;43.200;27.920;2023-02-21T08:16:01;100762.25;;;21.14;27.73
6942;BME280;3510;43.200;27.920;2023-02-21T08:18:28;100749.00;;;21.03;27.63
6942;BME280;3510;43.200;27.920;2023-02-21T08:20:55;100691.47;;;20.73;27.57
6942;BME280;3510;43.200;27.920;2023-02-21T08:23:22;100751.56;;;21.03;28.02
6942;BME280;3510;43.200;27.920;2023-02-21T08:25:50;100632.94;;;20.81;27.57
6942;BME280;3510;43.200;27.920;2023-02-21T08:28:17;100732.91;;;20.85;27.99
6942;BME280;3510;43.200;27.920;2023-02-21T08:30:44;100749.97;;;21.28;27.46
6942;BME280;3510;43.200;27.920;2023-02-21T08:33:11;100728.34;;;21.63;26.62
6942;BME280;3510;43.200;27.920;2023-02-21T08:35:38;100699.78;;;21.77;26.35
6942;BME280;3510;43.200;27.920;2023-02-21T08:38:04;100680.84;;;21.95;25.91
6942;BME280;3510;43.200;27.920;2023-02-21T08:40:33;100743.59;;;21.60;26.08
6942;BME280;3510;43.200;27.920;2023-02-21T08:43:01;100697.66;;;22.35;25.36
6942;BME280;3510;43.200;27.920;2023-02-21T08:45:28;100721.72;;;22.64;25.41
6942;BME280;3510;43.200;27.920;2023-02-21T08:47:55;100705.78;;;22.48;25.74
6942;BME280;3510;43.200;27.920;2023-02-21T08:50:24;100706.41;;;22.40;25.56
6942;BME280;3510;43.200;27.920;2023-02-21T08:52:52;100719.50;;;22.50;25.42
6942;BME280;3510;43.200;27.920;2023-02-21T08:55:24;100695.31;;;22.41;25.27
6942;BME280;3510;43.200;27.920;2023-02-21T08:57:53;100687.28;;;22.83;24.76
6942;BME280;3510;43.200;27.920;2023-02-21T09:00:24;100649.84;;;22.13;25.31
6942;BME280;3510;43.200;27.920;2023-02-21T09:02:52;100693.72;;;22.70;24.80
6942;BME280;3510;43.200;27.920;2023-02-21T09:05:22;100725.28;;;22.68;25.40
6942;BME280;3510;43.200;27.920;2023-02-21T09:07:52;100693.66;;;21.95;26.01
6942;BME280;3510;43.200;27.920;2023-02-21T09:10:23;100716.06;;;22.23;26.04
6942;BME280;3510;43.200;27.920;2023-02-21T09:12:51;100718.50;;;22.44;25.61
6942;BME280;3510;43.200;27.920;2023-02-21T09:15:18;100710.00;;;22.47;25.38
6942;BME280;3510;43.200;27.920;2023-02-21T09:24:06;100684.66;;;22.55;24.93
6942;BME280;3510;43.200;27.920;2023-02-21T09:26:34;100704.38;;;22.83;24.47
6942;BME280;3510;43.200;27.920;2023-02-21T09:29:15;100696.88;;;22.89;24.59
6942;BME280;3510;43.200;27.920;2023-02-21T09:31:56;100658.66;;;22.97;24.55
6942;BME280;3510;43.200;27.920;2023-02-21T09:34:23;100652.66;;;23.25;24.58
6942;BME280;3510;43.200;27.920;2023-02-21T09:36:50;100696.03;;;22.63;24.96
6942;BME280;3510;43.200;27.920;2023-02-21T09:39:21;100684.41;;;23.27;24.44
6942;BME280;3510;43.200;27.920;2023-02-21T09:42:02;100656.38;;;23.34;24.19
6942;BME280;3510;43.200;27.920;2023-02-21T09:44:29;100647.22;;;22.61;24.93
6942;BME280;3510;43.200;27.920;2023-02-21T09:47:14;100602.03;;;22.39;24.57
6942;BME280;3510;43.200;27.920;2023-02-21T09:50:00;100666.84;;;22.59;24.53
6942;BME280;3510;43.200;27.920;2023-02-21T09:52:43;100657.13;;;23.30;23.98
6942;BME280;3510;43.200;27.920;2023-02-21T09:58:38;100621.69;;;23.18;24.21
6942;BME280;3510;43.200;27.920;2023-02-21T10:01:31;100638.75;;;23.47;24.23
6942;BME280;3510;43.200;27.920;2023-02-21T10:04:10;100625.84;;;23.43;24.16
6942;BME280;3510;43.200;27.920;2023-02-21T10:06:48;100622.25;;;23.99;23.40
6942;BME280;3510;43.200;27.920;2023-02-21T10:09:24;100571.81;;;24.38;22.80
6942;BME280;3510;43.200;27.920;2023-02-21T10:11:58;100615.34;;;24.64;23.20
6942;BME280;3510;43.200;27.920;2023-02-21T10:14:38;100607.47;;;24.23;23.57
6942;BME280;3510;43.200;27.920;2023-02-21T10:17:14;100602.59;;;24.69;22.95
6942;BME280;3510;43.200;27.920;2023-02-21T10:19:48;100590.25;;;23.87;23.70
6942;BME280;3510;43.200;27.920;2023-02-21T10:22:32;100591.16;;;23.89;23.57
6942;BME280;3510;43.200;27.920;2023-02-21T10:25:00;100537.66;;;24.09;22.69
6942;BME280;3510;43.200;27.920;2023-02-21T10:27:30;100560.16;;;23.83;22.40
6942;BME280;3510;43.200;27.920;2023-02-21T10:30:03;100514.25;;;23.34;22.86
6942;BME280;3510;43.200;27.920;2023-02-21T10:32:33;100557.16;;;24.00;22.70
6942;BME280;3510;43.200;27.920;2023-02-21T10:34:59;100523.41;;;23.87;22.28
6942;BME280;3510;43.200;27.920;2023-02-21T10:37:34;100533.97;;;24.69;21.80
6942;BME280;3510;43.200;27.920;2023-02-21T10:40:09;100531.94;;;25.36;21.31
6942;BME280;3510;43.200;27.920;2023-02-21T10:42:43;100466.63;;;24.92;21.25
6942;BME280;3510;43.200;27.920;2023-02-21T10:45:15;100508.69;;;25.31;21.29
6942;BME280;3510;43.200;27.920;2023-02-21T10:47:49;100506.16;;;25.33;21.43
6942;BME280;3510;43.200;27.920;2023-02-21T10:50:36;100496.81;;;25.40;21.13
6942;BME280;3510;43.200;27.920;2023-02-21T10:53:03;100469.03;;;24.81;21.48
6942;BME280;3510;43.200;27.920;2023-02-21T10:55:30;100454.91;;;25.04;21.17
6942;BME280;3510;43.200;27.920;2023-02-21T10:58:06;100504.34;;;25.29;21.37
6942;BME280;3510;43.200;27.920;2023-02-21T11:00:36;100488.00;;;25.28;21.18
6942;BME280;3510;43.200;27.920;2023-02-21T11:03:05;100465.81;;;25.35;21.18
6942;BME280;3510;43.200;27.920;2023-02-21T11:05:34;100481.78;;;25.64;21.05
6942;BME280;3510;43.200;27.920;2023-02-21T11:08:05;100471.41;;;25.13;21.44
6942;BME280;3510;43.200;27.920;2023-02-21T11:10:34;100454.56;;;25.31;21.02
6942;BME280;3510;43.200;27.920;2023-02-21T11:13:05;100455.72;;;25.47;21.05
6942;BME280;3510;43.200;27.920;2023-02-21T11:15:33;100449.00;;;24.68;21.52
6942;BME280;3510;43.200;27.920;2023-02-21T11:18:05;100476.94;;;24.92;21.40
6942;BME280;3510;43.200;27.920;2023-02-21T11:20:32;100461.75;;;25.04;20.75
6942;BME280;3510;43.200;27.920;2023-02-21T11:22:59;100473.53;;;25.35;20.58
6942;BME280;3510;43.200;27.920;2023-02-21T11:25:28;100449.66;;;25.00;20.55
6942;BME280;3510;43.200;27.920;2023-02-21T11:28:00;100408.09;;;24.81;20.66
6942;BME280;3510;43.200;27.920;2023-02-21T11:30:30;100461.50;;;24.92;20.27
6942;BME280;3510;43.200;27.920;2023-02-21T11:32:59;100454.13;;;25.54;19.56
6942;BME280;3510;43.200;27.920;2023-02-21T11:35:32;100422.25;;;24.59;19.98
6942;BME280;3510;43.200;27.920;2023-02-21T11:38:01;100462.56;;;25.01;20.00
6942;BME280;3510;43.200;27.920;2023-02-21T11:40:32;100476.94;;;24.92;19.97
6942;BME280;3510;43.200;27.920;2023-02-21T11:43:17;100447.66;;;25.77;19.49
6942;BME280;3510;43.200;27.920;2023-02-21T11:45:51;100463.63;;;25.56;19.73
6942;BME280;3510;43.200;27.920;2023-02-21T11:48:28;100440.44;;;25.58;19.45
6942;BME280;3510;43.200;27.920;2023-02-21T11:50:59;100454.19;;;25.58;19.85
6942;BME280;3510;43.200;27.920;2023-02-21T11:53:35;100477.69;;;25.28;20.24
6942;BME280;3510;43.200;27.920;2023-02-21T11:56:23;100390.22;;;24.47;20.65
6942;BME280;3510;43.200;27.920;2023-02-21T11:58:58;100466.09;;;25.06;20.46
6942;BME280;3510;43.200;27.920;2023-02-21T12:01:30;100391.13;;;24.91;20.04
6942;BME280;3510;43.200;27.920;2023-02-21T12:04:14;100446.38;;;25.52;19.43
6942;BME280;3510;43.200;27.920;2023-02-21T12:06:49;100472.28;;;25.62;20.04
6942;BME280;3510;43.200;27.920;2023-02-21T12:09:25;100403.13;;;24.48;20.38
6942;BME280;3510;43.200;27.920;2023-02-21T12:12:08;100436.59;;;25.33;20.03
6942;BME280;3510;43.200;27.920;2023-02-21T12:14:49;100436.59;;;24.91;20.36
6942;BME280;3510;43.200;27.920;2023-02-21T12:17:27;100439.75;;;25.67;19.92
6942;BME280;3510;43.200;27.920;2023-02-21T12:20:07;100426.63;;;25.07;19.86
6942;BME280;3510;43.200;27.920;2023-02-21T12:22:57;100414.56;;;25.06;19.76
6942;BME280;3510;43.200;27.920;2023-02-21T12:25:34;100411.75;;;25.38;19.28
6942;BME280;3510;43.200;27.920;2023-02-21T12:28:12;100409.91;;;25.31;18.97
6942;BME280;3510;43.200;27.920;2023-02-21T12:31:04;100398.56;;;25.20;19.17
6942;BME280;3510;43.200;27.920;2023-02-21T12:33:43;100388.66;;;24.97;18.97
6942;BME280;3510;43.200;27.920;2023-02-21T12:36:32;100392.88;;;24.94;19.46
6942;BME280;3510;43.200;27.920;2023-02-21T12:39:11;100403.63;;;25.15;18.85
6942;BME280;3510;43.200;27.920;2023-02-21T12:41:57;100363.38;;;24.76;19.18
6942;BME280;3510;43.200;27.920;2023-02-21T12:44:34;100386.44;;;25.66;18.85
6942;BME280;3510;43.200;27.920;2023-02-21T12:47:05;100383.88;;;25.16;19.09
6942;BME280;3510;43.200;27.920;2023-02-21T12:49:41;100394.69;;;24.98;19.42
6942;BME280;3510;43.200;27.920;2023-02-21T12:52:15;100346.63;;;24.54;19.54
6942;BME280;3510;43.200;27.920;2023-02-21T12:54:49;100280.44;;;24.47;19.22
6942;BME280;3510;43.200;27.920;2023-02-21T12:57:23;100349.00;;;24.87;19.64
6942;BME280;3510;43.200;27.920;2023-02-21T12:59:59;100380.88;;;24.50;19.43
6942;BME280;3510;43.200;27.920;2023-02-21T13:02:42;100376.47;;;24.45;19.34
6942;BME280;3510;43.200;27.920;2023-02-21T13:05:13;100372.44;;;24.57;18.95
6942;BME280;3510;43.200;27.920;2023-02-21T13:07:50;100327.66;;;24.08;19.38
6942;BME280;3510;43.200;27.920;2023-02-21T13:10:21;100338.72;;;24.44;18.88
6942;BME280;3510;43.200;27.920;2023-02-21T13:15:30;100364.16;;;25.18;18.82
6942;BME280;3510;43.200;27.920;2023-02-21T13:18:01;100352.22;;;24.35;19.32
6942;BME280;3510;43.200;27.920;2023-02-21T13:20:34;100354.50;;;24.62;19.16
6942;BME280;3510;43.200;27.920;2023-02-21T13:26:22;100336.69;;;24.30;19.40
6942;BME280;3510;43.200;27.920;2023-02-21T13:28:54;100382.28;;;24.37;19.57
6942;BME280;3510;43.200;27.920;2023-02-21T13:31:24;100368.69;;;24.42;19.27
6942;BME280;3510;43.200;27.920;2023-02-21T13:33:54;100380.97;;;24.55;19.15
6942;BME280;3510;43.200;27.920;2023-02-21T13:36:25;100386.69;;;24.84;19.07
6942;BME280;3510;43.200;27.920;2023-02-21T13:38:59;100331.56;;;24.30;19.41
6942;BME280;3510;43.200;27.920;2023-02-21T13:41:33;100399.31;;;24.70;19.58
6942;BME280;3510;43.200;27.920;2023-02-21T13:44:05;100333.97;;;24.65;19.15
6942;BME280;3510;43.200;27.920;2023-02-21T13:52:35;100326.44;;;24.74;19.72